Valle Universitario, Puerto Rico
Current Conditions -  °F | °C
As of 9:56 PM on Wednesday 26 Nov 2014 (Local Time) from TJSJ Reporting Station
Light Rain Light Rain  
Wind Chill: 77°   Ceiling: Unl
Heat Index: 78°   Visibility: 9mi
Dew Point: 74°   Wind: 6mph
Humidity: 90%   Direction: 130°SE
Pressure: 30.04"   Gusts: NA
Location:  18.4125°N, 66.0374°W
Report Text: TJSJ 270156Z 13005KT 9SM -RA FEW026 SCT032 SCT043 25/23 A3004 RMK AO2 RAB46 SLP170 P0000 T02500233
Loading
Personal Weather Stations






























Interactive Weather Map New forecast layout! Learn more

10-Day Weather Forecast

Advertisements
Track Severe Weather on mobile